createdAt,value
2018-09-12T00:02:20.071Z,5.20
2018-09-12T00:04:49.168Z,4.53
2018-09-12T00:07:17.917Z,6.00
2018-09-12T00:09:46.288Z,4.30
2018-09-12T00:12:15.059Z,4.23
2018-09-12T00:14:43.844Z,5.77
2018-09-12T00:17:13.043Z,4.50
2018-09-12T00:19:41.831Z,4.60
2018-09-12T00:22:10.675Z,6.73
2018-09-12T00:24:39.523Z,6.53
2018-09-12T00:27:08.274Z,5.20
2018-09-12T00:29:37.078Z,7.77
2018-09-12T00:32:05.487Z,6.43
2018-09-12T00:34:33.861Z,9.37
2018-09-12T00:37:02.687Z,8.40
2018-09-12T00:39:31.420Z,4.03
2018-09-12T00:42:00.186Z,10.63
2018-09-12T00:44:28.535Z,5.00
2018-09-12T00:46:56.902Z,6.30
2018-09-12T00:49:25.703Z,8.57
2018-09-12T00:51:54.135Z,10.10
2018-09-12T00:54:22.895Z,6.77
2018-09-12T00:56:51.649Z,5.57
2018-09-12T00:59:20.417Z,5.90
2018-09-12T01:01:49.382Z,4.97
2018-09-12T01:04:17.759Z,4.47
2018-09-12T01:06:46.627Z,7.27
2018-09-12T01:09:15.387Z,5.63
2018-09-12T01:11:43.752Z,5.30
2018-09-12T01:14:12.450Z,7.90
2018-09-12T01:16:40.859Z,3.73
2018-09-12T01:19:09.652Z,7.40
2018-09-12T01:21:38.370Z,5.30
2018-09-12T01:24:06.793Z,6.67
2018-09-12T01:26:35.560Z,6.90
2018-09-12T01:29:03.938Z,6.63
2018-09-12T01:31:32.718Z,4.20
2018-09-12T01:34:01.433Z,5.70
2018-09-12T01:36:30.141Z,5.97
2018-09-12T01:38:58.985Z,5.67
2018-09-12T01:41:28.799Z,4.47
2018-09-12T01:43:57.590Z,8.47
2018-09-12T01:46:26.354Z,4.77
2018-09-12T01:48:55.092Z,6.97
2018-09-12T01:51:23.812Z,4.53
2018-09-12T01:53:52.639Z,4.77
2018-09-12T01:56:21.410Z,5.97
2018-09-12T01:58:49.829Z,7.87
2018-09-12T02:01:18.270Z,4.03
2018-09-12T02:03:47.092Z,8.93
2018-09-12T02:06:15.903Z,7.30
2018-09-12T02:08:44.287Z,9.83
2018-09-12T02:11:13.097Z,7.53
2018-09-12T02:13:41.952Z,7.27
2018-09-12T02:16:10.739Z,5.70
2018-09-12T02:18:39.177Z,8.23
2018-09-12T02:21:07.621Z,7.43
2018-09-12T02:23:36.047Z,6.10
2018-09-12T02:26:04.820Z,7.03
2018-09-12T02:28:33.264Z,7.33
2018-09-12T02:31:02.085Z,8.13
2018-09-12T02:33:30.520Z,9.17
2018-09-12T02:36:33.905Z,8.57
2018-09-12T02:39:02.336Z,6.30
2018-09-12T02:41:30.678Z,8.07
2018-09-12T02:43:59.359Z,6.27
2018-09-12T02:46:28.137Z,6.70
2018-09-12T02:48:56.898Z,7.13
2018-09-12T02:51:25.921Z,6.20
2018-09-12T02:53:54.834Z,7.30
2018-09-12T02:56:23.609Z,9.00
2018-09-12T02:58:52.497Z,4.77
2018-09-12T03:01:37.265Z,6.47
2018-09-12T03:04:16.797Z,5.70
2018-09-12T03:06:45.616Z,10.57
2018-09-12T03:09:14.393Z,4.17
2018-09-12T03:11:42.739Z,5.33
2018-09-12T03:14:11.561Z,7.30
2018-09-12T03:16:40.327Z,9.23
2018-09-12T03:19:09.441Z,12.53
2018-09-12T03:21:38.274Z,6.43
2018-09-12T03:24:07.145Z,6.23
2018-09-12T03:26:36.091Z,8.10
2018-09-12T03:29:05.129Z,7.23
2018-09-12T03:31:33.920Z,8.27
2018-09-12T03:34:02.704Z,7.03
2018-09-12T03:36:31.109Z,14.80
2018-09-12T03:38:59.882Z,7.27
2018-09-12T03:41:37.045Z,6.57
2018-09-12T03:44:05.448Z,5.53
2018-09-12T03:46:33.820Z,11.43
2018-09-12T03:49:02.635Z,5.80
2018-09-12T03:51:31.017Z,7.53
2018-09-12T03:53:59.397Z,5.80
2018-09-12T03:56:28.200Z,7.73
2018-09-12T03:58:57.001Z,6.97
2018-09-12T04:01:26.000Z,9.07
2018-09-12T04:03:54.805Z,7.80
2018-09-12T04:06:23.681Z,13.17
2018-09-12T04:08:52.536Z,13.80
2018-09-12T04:11:21.335Z,9.53
2018-09-12T04:13:49.954Z,7.87
2018-09-12T04:16:18.716Z,6.43
2018-09-12T04:18:47.552Z,7.90
2018-09-12T04:21:16.355Z,8.37
2018-09-12T04:23:45.230Z,9.37
2018-09-12T04:26:14.075Z,12.03
2018-09-12T04:28:42.921Z,6.13
2018-09-12T04:31:11.768Z,10.40
2018-09-12T04:33:40.565Z,9.40
2018-09-12T04:36:09.346Z,8.70
2018-09-12T04:38:38.156Z,8.37
2018-09-12T04:41:06.945Z,9.07
2018-09-12T04:43:35.821Z,10.07
2018-09-12T04:46:04.712Z,8.37
2018-09-12T04:48:33.127Z,10.67
2018-09-12T04:51:01.915Z,8.33
2018-09-12T04:53:30.815Z,13.90
2018-09-12T04:55:59.602Z,7.73
2018-09-12T04:58:28.427Z,9.07
2018-09-12T05:00:56.814Z,7.80
2018-09-12T05:03:25.233Z,11.03
2018-09-12T05:05:53.992Z,11.40
2018-09-12T05:08:22.767Z,8.07
2018-09-12T05:10:51.126Z,8.17
2018-09-12T05:13:19.534Z,10.27
2018-09-12T05:15:48.423Z,13.50
2018-09-12T05:18:17.187Z,10.60
2018-09-12T05:20:45.938Z,24.30
2018-09-12T05:23:14.714Z,11.40
2018-09-12T05:25:43.507Z,8.93
2018-09-12T05:28:11.912Z,11.13
2018-09-12T05:30:40.705Z,9.57
2018-09-12T05:33:09.471Z,9.47
2018-09-12T05:35:38.242Z,12.03
2018-09-12T05:38:06.985Z,10.60
2018-09-12T05:40:35.397Z,11.63
2018-09-12T05:43:04.162Z,9.03
2018-09-12T05:45:32.643Z,11.67
2018-09-12T05:48:01.041Z,8.23
2018-09-12T05:50:29.448Z,13.40
2018-09-12T05:52:58.244Z,11.20
2018-09-12T05:55:26.989Z,9.47
2018-09-12T05:57:55.769Z,12.60
2018-09-12T06:00:24.123Z,9.83
2018-09-12T06:02:52.989Z,11.53
2018-09-12T06:05:21.791Z,8.70
2018-09-12T06:07:50.589Z,11.70
2018-09-12T06:10:19.477Z,9.83
2018-09-12T06:12:47.857Z,10.73
2018-09-12T06:15:16.687Z,12.53
2018-09-12T06:17:45.516Z,12.57
2018-09-12T06:20:14.296Z,12.20
2018-09-12T06:22:43.082Z,12.30
2018-09-12T06:25:11.933Z,15.63
2018-09-12T06:27:40.386Z,15.80
2018-09-12T06:30:09.267Z,15.90
2018-09-12T06:32:38.053Z,14.23
2018-09-12T06:35:06.974Z,15.83
2018-09-12T06:37:35.792Z,15.53
2018-09-12T06:40:04.225Z,17.80
2018-09-12T06:42:33.032Z,15.90
2018-09-12T06:45:01.432Z,13.30
2018-09-12T06:47:30.228Z,13.70
2018-09-12T06:49:58.996Z,17.23
2018-09-12T06:52:27.514Z,15.57
2018-09-12T06:54:55.867Z,11.93
2018-09-12T06:57:24.281Z,14.27
2018-09-12T06:59:53.089Z,15.23
2018-09-12T07:02:21.842Z,14.70
2018-09-12T07:04:50.645Z,15.77
2018-09-12T07:07:19.436Z,12.83
2018-09-12T07:09:47.826Z,14.23
2018-09-12T07:12:16.203Z,16.37
2018-09-12T07:14:45.409Z,18.10
2018-09-12T07:17:13.815Z,12.33
2018-09-12T07:19:42.650Z,16.37
2018-09-12T07:22:11.542Z,14.13
2018-09-12T07:24:40.004Z,16.10
2018-09-12T07:27:08.402Z,16.70
2018-09-12T07:29:36.839Z,13.40
2018-09-12T07:32:05.836Z,18.10
2018-09-12T07:34:34.584Z,19.77
2018-09-12T07:37:02.979Z,14.73
2018-09-12T07:39:31.769Z,14.67
2018-09-12T07:42:00.594Z,16.63
2018-09-12T07:44:29.377Z,16.50
2018-09-12T07:46:57.885Z,20.53
2018-09-12T07:49:26.294Z,16.37
2018-09-12T07:51:54.701Z,15.77
2018-09-12T07:54:23.516Z,16.30
2018-09-12T07:56:52.308Z,14.50
2018-09-12T07:59:21.130Z,15.33
2018-09-12T08:01:49.883Z,14.23
2018-09-12T08:04:18.691Z,16.23
2018-09-12T08:06:47.039Z,16.27
2018-09-12T08:09:15.825Z,15.43
2018-09-12T08:11:44.658Z,14.93
2018-09-12T08:14:13.335Z,15.47
2018-09-12T08:16:41.724Z,15.53
2018-09-12T08:19:10.148Z,14.40
2018-09-12T08:21:38.957Z,14.67
2018-09-12T08:24:07.775Z,14.50
2018-09-12T08:26:36.588Z,16.40
2018-09-12T08:29:05.441Z,14.67
2018-09-12T08:31:46.795Z,14.33
2018-09-12T08:34:15.555Z,15.33
2018-09-12T08:36:43.962Z,15.13
2018-09-12T08:39:12.369Z,17.73
2018-09-12T08:41:41.184Z,15.70
2018-09-12T08:44:09.931Z,13.87
2018-09-12T08:46:38.359Z,13.83
2018-09-12T08:49:06.775Z,14.93
2018-09-12T08:51:35.120Z,15.87
2018-09-12T08:54:03.973Z,12.90
2018-09-12T08:56:32.747Z,19.53
2018-09-12T08:59:01.182Z,14.57
2018-09-12T09:01:36.543Z,12.70
2018-09-12T09:04:05.030Z,17.50
2018-09-12T09:06:33.800Z,11.10
2018-09-12T09:09:02.656Z,14.57
2018-09-12T09:11:31.078Z,11.17
2018-09-12T09:13:59.903Z,14.37
2018-09-12T09:16:28.682Z,15.17
2018-09-12T09:18:57.500Z,12.77
2018-09-12T09:21:26.305Z,10.67
2018-09-12T09:23:54.766Z,11.53
2018-09-12T09:26:23.167Z,10.90
2018-09-12T09:28:51.635Z,16.80
2018-09-12T09:31:20.059Z,10.00
2018-09-12T09:33:48.897Z,11.33
2018-09-12T09:36:17.711Z,10.87
2018-09-12T09:38:46.513Z,14.93
2018-09-12T09:44:08.397Z,10.17
2018-09-12T09:46:37.157Z,19.80
2018-09-12T09:49:06.047Z,19.77
2018-09-12T09:51:34.456Z,18.37
2018-09-12T09:54:03.005Z,31.77
2018-09-12T09:56:31.836Z,17.37
2018-09-12T09:59:00.237Z,21.33
2018-09-12T10:01:34.083Z,26.77
2018-09-12T10:04:08.155Z,19.67
2018-09-12T10:06:41.740Z,18.30
2018-09-12T10:09:15.662Z,12.63
2018-09-12T10:11:44.105Z,13.60
2018-09-12T10:14:12.507Z,10.60
2018-09-12T10:16:40.888Z,11.30
2018-09-12T10:19:09.679Z,6.70
2018-09-12T10:21:38.030Z,4.47
2018-09-12T10:24:06.464Z,2.17
2018-09-12T10:26:35.321Z,2.50
2018-09-12T10:29:04.152Z,1.50
2018-09-12T10:31:32.564Z,7.70
2018-09-12T10:34:01.384Z,11.30
2018-09-12T10:36:29.761Z,15.30
2018-09-12T10:38:58.636Z,15.93
2018-09-12T10:41:27.044Z,18.97
2018-09-12T10:43:55.877Z,11.60
2018-09-12T10:46:24.319Z,10.60
2018-09-12T10:48:53.167Z,8.50
2018-09-12T10:51:22.901Z,8.47
2018-09-12T10:53:51.640Z,7.00
2018-09-12T10:56:20.427Z,7.83
2018-09-12T10:58:48.905Z,8.67
2018-09-12T11:01:17.743Z,7.53
2018-09-12T11:03:46.164Z,9.73
2018-09-12T11:06:14.512Z,9.93
2018-09-12T11:08:43.330Z,6.70
2018-09-12T11:11:12.086Z,8.30
2018-09-12T11:13:40.553Z,8.30
2018-09-12T11:16:09.315Z,8.70
2018-09-12T11:18:38.171Z,4.00
2018-09-12T11:21:06.543Z,3.17
2018-09-12T11:23:35.678Z,3.00
2018-09-12T11:26:04.102Z,3.50
2018-09-12T11:28:32.947Z,4.13
2018-09-12T11:31:01.707Z,6.17
2018-09-12T11:33:30.117Z,4.90
2018-09-12T11:35:59.117Z,6.70
2018-09-12T11:38:27.881Z,4.63
2018-09-12T11:40:56.664Z,5.07
2018-09-12T11:43:25.495Z,6.07
2018-09-12T11:45:53.917Z,4.80
2018-09-12T11:48:22.712Z,5.80
2018-09-12T11:50:51.598Z,5.93
2018-09-12T11:53:20.361Z,5.93
2018-09-12T11:55:49.159Z,6.27
2018-09-12T11:58:17.978Z,4.93
2018-09-12T12:00:46.777Z,4.57
2018-09-12T12:03:15.587Z,3.57
2018-09-12T12:05:44.035Z,5.90
2018-09-12T12:08:12.805Z,4.77
2018-09-12T12:10:41.621Z,5.23
2018-09-12T12:13:10.524Z,3.83
2018-09-12T12:15:39.343Z,3.43
2018-09-12T12:18:07.724Z,4.63
2018-09-12T12:20:36.500Z,5.50
2018-09-12T12:23:04.914Z,4.77
2018-09-12T12:25:33.308Z,5.53
2018-09-12T12:28:02.181Z,4.90
2018-09-12T12:30:30.988Z,5.73
2018-09-12T12:32:59.794Z,7.07
2018-09-12T12:35:28.608Z,8.97
2018-09-12T12:37:57.017Z,8.23
2018-09-12T12:40:25.402Z,5.87
2018-09-12T12:42:54.152Z,8.90
2018-09-12T12:45:22.921Z,6.97
2018-09-12T12:47:51.683Z,12.03
2018-09-12T12:50:20.521Z,7.70
2018-09-12T12:52:49.335Z,10.90
2018-09-12T12:55:18.105Z,8.33
2018-09-12T12:57:46.890Z,8.80
2018-09-12T13:00:15.712Z,10.87
2018-09-12T13:02:44.472Z,10.97
2018-09-12T13:05:13.320Z,10.50
2018-09-12T13:07:41.788Z,10.33
2018-09-12T13:10:10.583Z,7.37
2018-09-12T13:12:39.380Z,8.23
2018-09-12T13:15:08.254Z,16.43
2018-09-12T13:17:37.051Z,11.93
2018-09-12T13:20:06.118Z,8.90
2018-09-12T13:22:34.536Z,8.80
2018-09-12T13:25:03.307Z,5.63
2018-09-12T13:27:32.202Z,6.63
2018-09-12T13:30:01.002Z,7.90
2018-09-12T13:32:29.912Z,5.83
2018-09-12T13:34:58.751Z,8.77
2018-09-12T13:37:27.494Z,3.33
2018-09-12T13:39:56.302Z,7.47
2018-09-12T13:42:25.093Z,4.80
2018-09-12T13:44:53.524Z,6.93
2018-09-12T13:47:22.349Z,6.73
2018-09-12T13:49:50.716Z,4.30
2018-09-12T13:52:19.134Z,7.17
2018-09-12T13:54:47.531Z,10.00
2018-09-12T13:57:15.955Z,5.50
2018-09-12T13:59:44.727Z,5.87
2018-09-12T14:02:13.512Z,5.10
2018-09-12T14:04:41.961Z,7.47
2018-09-12T14:07:10.761Z,3.23
2018-09-12T14:09:39.525Z,3.53
2018-09-12T14:12:08.403Z,9.37
2018-09-12T14:14:36.819Z,4.60
2018-09-12T14:17:05.677Z,3.77
2018-09-12T14:19:34.657Z,2.03
2018-09-12T14:22:03.279Z,3.67
2018-09-12T14:24:32.030Z,4.80
2018-09-12T14:27:00.785Z,3.37
2018-09-12T14:29:29.168Z,8.37
2018-09-12T14:31:57.993Z,4.57
2018-09-12T14:34:26.787Z,4.70
2018-09-12T14:36:55.616Z,6.03
2018-09-12T14:39:24.021Z,5.60
2018-09-12T14:41:52.418Z,6.70
2018-09-12T14:44:21.209Z,5.67
2018-09-12T14:46:50.447Z,6.17
2018-09-12T14:49:19.257Z,6.80
2018-09-12T14:51:48.112Z,5.63
2018-09-12T14:54:16.988Z,9.47
2018-09-12T14:56:45.773Z,7.53
2018-09-12T14:59:14.668Z,6.77
2018-09-12T15:01:43.031Z,7.50
2018-09-12T15:04:11.464Z,7.30
2018-09-12T15:06:40.942Z,6.50
2018-09-12T15:09:15.727Z,8.73
2018-09-12T15:11:45.532Z,9.67
2018-09-12T15:14:21.715Z,9.27
2018-09-12T15:16:51.487Z,7.10
2018-09-12T15:19:19.960Z,7.73
2018-09-12T15:21:48.564Z,9.80
2018-09-12T15:24:16.944Z,7.97
2018-09-12T15:26:47.089Z,8.20
2018-09-12T15:29:19.463Z,8.93
2018-09-12T15:31:48.743Z,7.17
2018-09-12T15:34:18.911Z,15.30
2018-09-12T15:36:49.714Z,10.03
2018-09-12T15:39:19.309Z,7.90
2018-09-12T15:41:49.419Z,14.67
2018-09-12T15:44:18.791Z,9.00
2018-09-12T15:46:51.174Z,8.47
2018-09-12T15:49:20.436Z,10.17
2018-09-12T15:51:50.090Z,8.53
2018-09-12T15:54:19.561Z,12.33
2018-09-12T15:56:48.837Z,9.20
2018-09-12T15:59:18.502Z,12.33
2018-09-12T16:01:47.894Z,10.87
2018-09-12T16:04:16.755Z,9.90
2018-09-12T16:06:45.561Z,16.70
2018-09-12T16:09:14.326Z,13.90
2018-09-12T16:11:43.539Z,11.53
2018-09-12T16:14:12.287Z,9.87
2018-09-12T16:16:41.305Z,12.80
2018-09-12T16:19:10.080Z,9.60
2018-09-12T16:21:39.373Z,10.23
2018-09-12T16:24:10.374Z,9.93
2018-09-12T16:26:39.760Z,9.37
2018-09-12T16:29:08.991Z,11.73
2018-09-12T16:31:37.471Z,8.67
2018-09-12T16:34:09.484Z,9.93
2018-09-12T16:36:37.954Z,12.67
2018-09-12T16:39:10.904Z,10.80
2018-09-12T16:41:39.330Z,11.90
2018-09-12T16:44:08.345Z,10.00
2018-09-12T16:46:36.796Z,15.13
2018-09-12T16:49:05.483Z,13.87
2018-09-12T16:51:34.118Z,11.20
2018-09-12T16:54:02.600Z,14.80
2018-09-12T16:56:31.551Z,12.87
2018-09-12T16:59:00.383Z,14.57
2018-09-12T17:01:28.761Z,18.77
2018-09-12T17:03:57.172Z,13.47
2018-09-12T17:06:26.285Z,14.83
2018-09-12T17:08:55.073Z,19.47
2018-09-12T17:11:24.821Z,16.17
2018-09-12T17:13:53.223Z,18.63
2018-09-12T17:16:22.186Z,23.97
2018-09-12T17:18:51.000Z,24.53
2018-09-12T17:21:19.394Z,22.47
2018-09-12T17:23:48.204Z,18.27
2018-09-12T17:26:16.989Z,13.73
2018-09-12T17:28:45.818Z,14.30
2018-09-12T17:31:14.634Z,12.97
2018-09-12T17:33:43.456Z,13.30
2018-09-12T17:36:12.529Z,13.03
2018-09-12T17:38:41.319Z,12.83
2018-09-12T17:41:09.687Z,14.63
2018-09-12T17:43:38.483Z,13.23
2018-09-12T17:46:07.545Z,13.47
2018-09-12T17:48:36.375Z,14.83
2018-09-12T17:51:05.562Z,14.80
2018-09-12T17:53:34.332Z,14.33
2018-09-12T17:56:03.199Z,15.33
2018-09-12T17:58:31.960Z,15.00
2018-09-12T18:01:00.813Z,16.50
2018-09-12T18:03:29.834Z,15.20
2018-09-12T18:05:58.678Z,14.17
2018-09-12T18:08:27.502Z,14.10
2018-09-12T18:10:56.354Z,13.53
2018-09-12T18:13:25.191Z,14.07
2018-09-12T18:15:54.000Z,15.00
2018-09-12T18:18:22.784Z,12.67
2018-09-12T18:20:51.158Z,13.93
2018-09-12T18:23:19.992Z,13.47
2018-09-12T18:25:49.200Z,11.30
2018-09-12T18:28:17.574Z,11.60
2018-09-12T18:30:46.401Z,10.90
2018-09-12T18:33:14.875Z,11.60
2018-09-12T18:35:43.346Z,10.43
2018-09-12T18:38:12.104Z,10.47
2018-09-12T18:40:41.265Z,10.20
2018-09-12T18:43:09.987Z,6.97
2018-09-12T18:45:38.769Z,13.53
2018-09-12T18:48:08.616Z,8.63
2018-09-12T18:50:37.491Z,5.07
2018-09-12T18:53:06.809Z,6.13
2018-09-12T18:55:37.290Z,8.47
2018-09-12T18:58:06.549Z,9.77
2018-09-12T19:00:35.359Z,11.70
2018-09-12T19:03:03.820Z,8.73
2018-09-12T19:05:34.575Z,6.07
2018-09-12T19:08:03.498Z,14.73
2018-09-12T19:10:32.655Z,17.53
2018-09-12T19:13:02.666Z,8.50
2018-09-12T19:15:31.731Z,11.60
2018-09-12T19:18:00.575Z,7.70
2018-09-12T19:20:31.837Z,9.27
2018-09-12T19:23:00.906Z,7.87
2018-09-12T19:25:31.975Z,10.30
2018-09-12T19:28:01.318Z,10.07
2018-09-12T19:30:30.208Z,9.83
2018-09-12T19:32:59.622Z,8.90
2018-09-12T19:35:29.632Z,11.50
2018-09-12T19:37:59.523Z,9.20
2018-09-12T19:40:28.932Z,9.43
2018-09-12T19:42:59.423Z,8.40
2018-09-12T19:45:28.063Z,14.67
2018-09-12T19:47:57.108Z,11.43
2018-09-12T19:50:25.879Z,15.33
2018-09-12T19:52:54.275Z,7.77
2018-09-12T19:55:23.927Z,10.17
2018-09-12T19:57:53.353Z,9.77
2018-09-12T20:00:22.230Z,10.93
2018-09-12T20:02:50.996Z,9.77
2018-09-12T20:05:20.935Z,11.40
2018-09-12T20:07:49.824Z,16.00
2018-09-12T20:10:18.453Z,13.30
2018-09-12T20:12:46.885Z,10.77
2018-09-12T20:15:15.673Z,7.80
2018-09-12T20:17:44.518Z,9.73
2018-09-12T20:20:12.916Z,8.07
2018-09-12T20:22:41.290Z,8.97
2018-09-12T20:25:10.073Z,7.77
2018-09-12T20:27:38.875Z,7.43
2018-09-12T20:30:07.784Z,7.90
2018-09-12T20:32:36.264Z,9.13
2018-09-12T20:35:05.094Z,8.63
2018-09-12T20:37:33.466Z,10.03
2018-09-12T20:40:02.303Z,7.50
2018-09-12T20:42:31.195Z,6.50
2018-09-12T20:44:59.980Z,8.17
2018-09-12T20:47:28.760Z,8.30
2018-09-12T20:49:57.598Z,5.87
2018-09-12T20:52:26.403Z,6.57
2018-09-12T20:54:55.457Z,6.40
2018-09-12T20:57:24.289Z,7.27
2018-09-12T20:59:52.686Z,8.37
2018-09-12T21:02:21.109Z,6.20
2018-09-12T21:04:49.869Z,8.23
2018-09-12T21:07:18.283Z,8.67
2018-09-12T21:09:47.121Z,5.50
2018-09-12T21:12:15.505Z,8.23
2018-09-12T21:14:44.244Z,6.97
2018-09-12T21:17:12.698Z,6.13
2018-09-12T21:19:41.462Z,4.70
2018-09-12T21:22:10.193Z,6.43
2018-09-12T21:24:38.621Z,4.73
2018-09-12T21:27:07.408Z,7.87
2018-09-12T21:29:36.263Z,4.60
2018-09-12T21:32:05.041Z,5.47
2018-09-12T21:34:33.808Z,8.20
2018-09-12T21:37:02.580Z,2.37
2018-09-12T21:39:31.381Z,5.33
2018-09-12T21:42:00.195Z,3.67
2018-09-12T21:44:29.110Z,4.53
2018-09-12T21:46:58.000Z,3.73
2018-09-12T21:49:26.777Z,13.47
2018-09-12T21:51:55.195Z,6.50
2018-09-12T21:54:23.705Z,4.97
2018-09-12T21:56:52.094Z,4.10
2018-09-12T21:59:20.548Z,2.77
2018-09-12T22:01:49.336Z,5.83
2018-09-12T22:04:18.155Z,4.93
2018-09-12T22:06:47.007Z,4.50
2018-09-12T22:09:15.802Z,3.80
2018-09-12T22:11:44.557Z,3.80
2018-09-12T22:14:13.012Z,3.20
2018-09-12T22:16:41.426Z,5.90
2018-09-12T22:19:10.271Z,4.53
2018-09-12T22:21:39.056Z,4.77
2018-09-12T22:24:07.413Z,3.63
2018-09-12T22:26:36.185Z,5.50
2018-09-12T22:29:04.988Z,3.57
2018-09-12T22:31:33.812Z,3.27
2018-09-12T22:34:02.660Z,7.93
2018-09-12T22:36:31.062Z,4.27
2018-09-12T22:38:59.450Z,7.07
2018-09-12T22:41:27.884Z,6.03
2018-09-12T22:43:56.696Z,5.00
2018-09-12T22:46:25.477Z,4.40
2018-09-12T22:48:54.240Z,4.77
2018-09-12T22:51:23.093Z,5.80
2018-09-12T22:53:51.827Z,4.73
2018-09-12T22:56:20.630Z,7.53
2018-09-12T22:58:49.374Z,4.27
2018-09-12T23:01:18.123Z,5.60
2018-09-12T23:03:46.493Z,3.50
2018-09-12T23:06:15.094Z,4.87
2018-09-12T23:08:43.747Z,4.13
2018-09-12T23:11:12.153Z,4.93
2018-09-12T23:13:40.703Z,6.10
2018-09-12T23:16:09.076Z,4.50
2018-09-12T23:18:37.464Z,5.27
2018-09-12T23:21:06.281Z,7.20
2018-09-12T23:23:35.113Z,4.63
2018-09-12T23:26:03.904Z,6.37
2018-09-12T23:28:32.284Z,4.63
2018-09-12T23:31:01.076Z,4.70
2018-09-12T23:33:29.491Z,7.33
2018-09-12T23:35:57.882Z,6.27
2018-09-12T23:38:26.337Z,9.93
2018-09-12T23:40:55.126Z,5.57
2018-09-12T23:43:23.900Z,2.60
2018-09-12T23:45:52.790Z,3.80
2018-09-12T23:48:21.519Z,5.67
2018-09-12T23:50:50.332Z,6.20
2018-09-12T23:53:19.145Z,5.43
2018-09-12T23:55:48.029Z,8.40
2018-09-12T23:58:16.396Z,11.03
